sensor_id;sensor_type;location;lat;lon;timestamp;P1;durP1;ratioP1;P2;durP2;ratioP2
15633;SDS011;14654;48.898;8.308;2023-03-01T00:01:07;15.57;;;13.77;;
15633;SDS011;14654;48.898;8.308;2023-03-01T00:03:34;16.87;;;14.53;;
15633;SDS011;14654;48.898;8.308;2023-03-01T00:06:00;16.97;;;14.47;;
15633;SDS011;14654;48.898;8.308;2023-03-01T00:08:26;15.73;;;13.80;;
15633;SDS011;14654;48.898;8.308;2023-03-01T00:11:05;15.97;;;14.23;;
15633;SDS011;14654;48.898;8.308;2023-03-01T00:13:34;18.00;;;13.97;;
15633;SDS011;14654;48.898;8.308;2023-03-01T00:16:01;17.07;;;14.17;;
15633;SDS011;14654;48.898;8.308;2023-03-01T00:18:28;18.33;;;12.50;;
15633;SDS011;14654;48.898;8.308;2023-03-01T00:20:53;16.70;;;13.63;;
15633;SDS011;14654;48.898;8.308;2023-03-01T00:23:20;17.13;;;13.87;;
15633;SDS011;14654;48.898;8.308;2023-03-01T00:25:45;14.57;;;13.07;;
15633;SDS011;14654;48.898;8.308;2023-03-01T00:28:11;14.70;;;13.27;;
15633;SDS011;14654;48.898;8.308;2023-03-01T00:30:36;15.00;;;13.40;;
15633;SDS011;14654;48.898;8.308;2023-03-01T00:33:01;15.40;;;13.77;;
15633;SDS011;14654;48.898;8.308;2023-03-01T00:35:27;16.20;;;13.93;;
15633;SDS011;14654;48.898;8.308;2023-03-01T00:37:52;14.70;;;13.20;;
15633;SDS011;14654;48.898;8.308;2023-03-01T00:40:23;14.43;;;12.90;;
15633;SDS011;14654;48.898;8.308;2023-03-01T00:42:49;15.37;;;13.77;;
15633;SDS011;14654;48.898;8.308;2023-03-01T00:45:14;14.87;;;13.27;;
15633;SDS011;14654;48.898;8.308;2023-03-01T00:47:39;15.57;;;13.80;;
15633;SDS011;14654;48.898;8.308;2023-03-01T00:50:05;15.13;;;13.37;;
15633;SDS011;14654;48.898;8.308;2023-03-01T00:52:31;14.87;;;13.27;;
15633;SDS011;14654;48.898;8.308;2023-03-01T00:54:56;16.23;;;14.50;;
15633;SDS011;14654;48.898;8.308;2023-03-01T00:57:22;15.43;;;13.10;;
15633;SDS011;14654;48.898;8.308;2023-03-01T00:59:48;14.40;;;12.67;;
15633;SDS011;14654;48.898;8.308;2023-03-01T01:02:13;17.47;;;13.73;;
15633;SDS011;14654;48.898;8.308;2023-03-01T01:04:38;15.47;;;13.63;;
15633;SDS011;14654;48.898;8.308;2023-03-01T01:07:04;16.17;;;14.47;;
15633;SDS011;14654;48.898;8.308;2023-03-01T01:09:30;17.30;;;13.67;;
15633;SDS011;14654;48.898;8.308;2023-03-01T01:11:56;16.27;;;13.90;;
15633;SDS011;14654;48.898;8.308;2023-03-01T01:14:21;16.03;;;13.57;;
15633;SDS011;14654;48.898;8.308;2023-03-01T01:16:47;18.07;;;14.33;;
15633;SDS011;14654;48.898;8.308;2023-03-01T01:19:13;17.97;;;12.90;;
15633;SDS011;14654;48.898;8.308;2023-03-01T01:21:39;16.40;;;13.67;;
15633;SDS011;14654;48.898;8.308;2023-03-01T01:24:04;16.23;;;14.53;;
15633;SDS011;14654;48.898;8.308;2023-03-01T01:26:31;14.83;;;13.33;;
15633;SDS011;14654;48.898;8.308;2023-03-01T01:28:58;14.87;;;13.07;;
15633;SDS011;14654;48.898;8.308;2023-03-01T01:31:25;16.53;;;14.30;;
15633;SDS011;14654;48.898;8.308;2023-03-01T01:33:52;16.87;;;14.47;;
15633;SDS011;14654;48.898;8.308;2023-03-01T01:36:18;15.03;;;12.90;;
15633;SDS011;14654;48.898;8.308;2023-03-01T01:38:43;14.97;;;13.40;;
15633;SDS011;14654;48.898;8.308;2023-03-01T01:41:09;16.43;;;14.13;;
15633;SDS011;14654;48.898;8.308;2023-03-01T01:43:39;15.77;;;14.03;;
15633;SDS011;14654;48.898;8.308;2023-03-01T01:48:45;16.47;;;13.87;;
15633;SDS011;14654;48.898;8.308;2023-03-01T01:51:18;16.33;;;14.13;;
15633;SDS011;14654;48.898;8.308;2023-03-01T01:53:47;15.00;;;13.50;;
15633;SDS011;14654;48.898;8.308;2023-03-01T01:56:16;16.60;;;14.90;;
15633;SDS011;14654;48.898;8.308;2023-03-01T01:58:42;15.90;;;13.93;;
15633;SDS011;14654;48.898;8.308;2023-03-01T02:01:09;15.83;;;14.07;;
15633;SDS011;14654;48.898;8.308;2023-03-01T02:03:34;16.47;;;14.77;;
15633;SDS011;14654;48.898;8.308;2023-03-01T02:06:10;16.63;;;14.40;;
15633;SDS011;14654;48.898;8.308;2023-03-01T02:08:40;17.77;;;14.97;;
15633;SDS011;14654;48.898;8.308;2023-03-01T02:11:07;19.03;;;15.27;;
15633;SDS011;14654;48.898;8.308;2023-03-01T02:13:35;18.00;;;15.20;;
15633;SDS011;14654;48.898;8.308;2023-03-01T02:16:05;17.47;;;15.30;;
15633;SDS011;14654;48.898;8.308;2023-03-01T02:18:34;16.73;;;14.93;;
15633;SDS011;14654;48.898;8.308;2023-03-01T02:23:30;17.30;;;15.37;;
15633;SDS011;14654;48.898;8.308;2023-03-01T02:26:19;16.87;;;14.67;;
15633;SDS011;14654;48.898;8.308;2023-03-01T02:28:53;16.97;;;15.17;;
15633;SDS011;14654;48.898;8.308;2023-03-01T02:31:19;16.23;;;14.53;;
15633;SDS011;14654;48.898;8.308;2023-03-01T02:34:04;16.67;;;13.87;;
15633;SDS011;14654;48.898;8.308;2023-03-01T02:36:33;16.50;;;14.63;;
15633;SDS011;14654;48.898;8.308;2023-03-01T02:39:03;16.83;;;15.07;;
15633;SDS011;14654;48.898;8.308;2023-03-01T02:41:32;15.80;;;14.10;;
15633;SDS011;14654;48.898;8.308;2023-03-01T02:44:02;20.07;;;15.10;;
15633;SDS011;14654;48.898;8.308;2023-03-01T02:46:28;20.23;;;15.63;;
15633;SDS011;14654;48.898;8.308;2023-03-01T02:48:55;17.03;;;15.23;;
15633;SDS011;14654;48.898;8.308;2023-03-01T02:56:53;17.37;;;15.07;;
15633;SDS011;14654;48.898;8.308;2023-03-01T02:59:21;17.40;;;14.90;;
15633;SDS011;14654;48.898;8.308;2023-03-01T03:01:49;17.40;;;15.07;;
15633;SDS011;14654;48.898;8.308;2023-03-01T03:04:15;16.90;;;15.17;;
15633;SDS011;14654;48.898;8.308;2023-03-01T03:06:45;17.47;;;14.60;;
15633;SDS011;14654;48.898;8.308;2023-03-01T03:09:12;16.33;;;14.63;;
15633;SDS011;14654;48.898;8.308;2023-03-01T03:11:38;18.03;;;15.97;;
15633;SDS011;14654;48.898;8.308;2023-03-01T03:14:05;17.57;;;14.93;;
15633;SDS011;14654;48.898;8.308;2023-03-01T03:16:55;21.23;;;16.70;;
15633;SDS011;14654;48.898;8.308;2023-03-01T03:19:20;17.47;;;15.30;;
15633;SDS011;14654;48.898;8.308;2023-03-01T03:21:46;18.63;;;16.60;;
15633;SDS011;14654;48.898;8.308;2023-03-01T03:24:11;18.97;;;16.83;;
15633;SDS011;14654;48.898;8.308;2023-03-01T03:26:37;19.13;;;16.37;;
15633;SDS011;14654;48.898;8.308;2023-03-01T03:29:02;19.53;;;15.73;;
15633;SDS011;14654;48.898;8.308;2023-03-01T03:31:27;19.43;;;15.70;;
15633;SDS011;14654;48.898;8.308;2023-03-01T03:33:53;18.87;;;16.27;;
15633;SDS011;14654;48.898;8.308;2023-03-01T03:36:20;19.67;;;16.70;;
15633;SDS011;14654;48.898;8.308;2023-03-01T03:38:47;18.87;;;16.77;;
15633;SDS011;14654;48.898;8.308;2023-03-01T03:41:13;17.63;;;15.80;;
15633;SDS011;14654;48.898;8.308;2023-03-01T03:43:40;18.77;;;16.33;;
15633;SDS011;14654;48.898;8.308;2023-03-01T03:46:07;19.30;;;16.63;;
15633;SDS011;14654;48.898;8.308;2023-03-01T03:48:35;19.17;;;16.60;;
15633;SDS011;14654;48.898;8.308;2023-03-01T03:51:01;19.00;;;16.60;;
15633;SDS011;14654;48.898;8.308;2023-03-01T03:53:30;19.77;;;17.40;;
15633;SDS011;14654;48.898;8.308;2023-03-01T03:55:55;19.20;;;15.93;;
15633;SDS011;14654;48.898;8.308;2023-03-01T03:58:21;20.77;;;17.00;;
15633;SDS011;14654;48.898;8.308;2023-03-01T04:00:50;18.53;;;16.50;;
15633;SDS011;14654;48.898;8.308;2023-03-01T04:03:21;18.80;;;16.80;;
15633;SDS011;14654;48.898;8.308;2023-03-01T04:05:47;19.17;;;17.13;;
15633;SDS011;14654;48.898;8.308;2023-03-01T04:08:14;18.10;;;15.77;;
15633;SDS011;14654;48.898;8.308;2023-03-01T04:10:41;18.97;;;16.63;;
15633;SDS011;14654;48.898;8.308;2023-03-01T04:13:09;17.87;;;16.00;;
15633;SDS011;14654;48.898;8.308;2023-03-01T04:15:37;22.43;;;18.53;;
15633;SDS011;14654;48.898;8.308;2023-03-01T04:18:03;20.13;;;16.73;;
15633;SDS011;14654;48.898;8.308;2023-03-01T04:20:31;21.47;;;17.13;;
15633;SDS011;14654;48.898;8.308;2023-03-01T04:23:21;20.20;;;17.87;;
15633;SDS011;14654;48.898;8.308;2023-03-01T04:28:20;20.33;;;16.53;;
15633;SDS011;14654;48.898;8.308;2023-03-01T04:31:02;20.73;;;17.93;;
15633;SDS011;14654;48.898;8.308;2023-03-01T04:33:41;21.40;;;18.30;;
15633;SDS011;14654;48.898;8.308;2023-03-01T04:36:10;21.33;;;18.43;;
15633;SDS011;14654;48.898;8.308;2023-03-01T04:38:36;20.83;;;16.90;;
15633;SDS011;14654;48.898;8.308;2023-03-01T04:41:04;20.73;;;17.43;;
15633;SDS011;14654;48.898;8.308;2023-03-01T04:43:30;19.43;;;17.07;;
15633;SDS011;14654;48.898;8.308;2023-03-01T04:45:59;20.77;;;18.17;;
15633;SDS011;14654;48.898;8.308;2023-03-01T04:48:27;21.50;;;18.00;;
15633;SDS011;14654;48.898;8.308;2023-03-01T04:50:53;20.60;;;18.10;;
15633;SDS011;14654;48.898;8.308;2023-03-01T04:53:18;20.53;;;18.33;;
15633;SDS011;14654;48.898;8.308;2023-03-01T04:55:43;23.07;;;17.80;;
15633;SDS011;14654;48.898;8.308;2023-03-01T04:58:08;21.40;;;18.63;;
15633;SDS011;14654;48.898;8.308;2023-03-01T05:00:34;20.73;;;18.53;;
15633;SDS011;14654;48.898;8.308;2023-03-01T05:03:00;23.63;;;19.10;;
15633;SDS011;14654;48.898;8.308;2023-03-01T05:05:33;21.90;;;18.53;;
15633;SDS011;14654;48.898;8.308;2023-03-01T05:08:01;21.13;;;18.07;;
15633;SDS011;14654;48.898;8.308;2023-03-01T05:10:30;21.83;;;18.70;;
15633;SDS011;14654;48.898;8.308;2023-03-01T05:12:57;25.23;;;20.17;;
15633;SDS011;14654;48.898;8.308;2023-03-01T05:15:23;22.90;;;19.33;;
15633;SDS011;14654;48.898;8.308;2023-03-01T05:17:53;21.47;;;18.60;;
15633;SDS011;14654;48.898;8.308;2023-03-01T05:20:20;23.53;;;19.33;;
15633;SDS011;14654;48.898;8.308;2023-03-01T05:22:49;22.93;;;20.13;;
15633;SDS011;14654;48.898;8.308;2023-03-01T05:25:16;21.67;;;18.70;;
15633;SDS011;14654;48.898;8.308;2023-03-01T05:27:41;21.93;;;18.43;;
15633;SDS011;14654;48.898;8.308;2023-03-01T05:30:07;21.50;;;18.63;;
15633;SDS011;14654;48.898;8.308;2023-03-01T05:32:46;23.40;;;19.57;;
15633;SDS011;14654;48.898;8.308;2023-03-01T05:35:14;24.37;;;18.93;;
15633;SDS011;14654;48.898;8.308;2023-03-01T05:37:42;23.57;;;19.03;;
15633;SDS011;14654;48.898;8.308;2023-03-01T05:40:13;23.60;;;19.70;;
15633;SDS011;14654;48.898;8.308;2023-03-01T05:42:43;22.63;;;19.13;;
15633;SDS011;14654;48.898;8.308;2023-03-01T05:45:30;22.70;;;19.60;;
15633;SDS011;14654;48.898;8.308;2023-03-01T05:47:57;23.40;;;19.50;;
15633;SDS011;14654;48.898;8.308;2023-03-01T05:50:26;23.10;;;19.80;;
15633;SDS011;14654;48.898;8.308;2023-03-01T05:53:00;21.63;;;19.33;;
15633;SDS011;14654;48.898;8.308;2023-03-01T05:55:32;22.77;;;20.03;;
15633;SDS011;14654;48.898;8.308;2023-03-01T05:57:59;25.27;;;20.67;;
15633;SDS011;14654;48.898;8.308;2023-03-01T06:00:25;25.17;;;20.13;;
15633;SDS011;14654;48.898;8.308;2023-03-01T06:02:52;23.40;;;19.87;;
15633;SDS011;14654;48.898;8.308;2023-03-01T06:05:19;23.00;;;20.27;;
15633;SDS011;14654;48.898;8.308;2023-03-01T06:07:44;24.53;;;20.53;;
15633;SDS011;14654;48.898;8.308;2023-03-01T06:10:09;25.33;;;20.57;;
15633;SDS011;14654;48.898;8.308;2023-03-01T06:12:36;27.07;;;19.77;;
15633;SDS011;14654;48.898;8.308;2023-03-01T06:15:03;22.13;;;19.57;;
15633;SDS011;14654;48.898;8.308;2023-03-01T06:17:30;23.73;;;20.23;;
15633;SDS011;14654;48.898;8.308;2023-03-01T06:19:56;25.63;;;20.83;;
15633;SDS011;14654;48.898;8.308;2023-03-01T06:22:22;24.37;;;21.23;;
15633;SDS011;14654;48.898;8.308;2023-03-01T06:24:47;25.20;;;20.50;;
15633;SDS011;14654;48.898;8.308;2023-03-01T06:27:13;26.23;;;21.10;;
15633;SDS011;14654;48.898;8.308;2023-03-01T06:29:38;25.73;;;21.27;;
15633;SDS011;14654;48.898;8.308;2023-03-01T06:32:03;25.13;;;20.80;;
15633;SDS011;14654;48.898;8.308;2023-03-01T06:34:29;26.80;;;21.73;;
15633;SDS011;14654;48.898;8.308;2023-03-01T06:36:55;26.93;;;21.80;;
15633;SDS011;14654;48.898;8.308;2023-03-01T06:39:21;23.00;;;19.37;;
15633;SDS011;14654;48.898;8.308;2023-03-01T06:41:46;24.07;;;20.70;;
15633;SDS011;14654;48.898;8.308;2023-03-01T06:44:11;25.77;;;20.83;;
15633;SDS011;14654;48.898;8.308;2023-03-01T06:46:38;25.87;;;21.93;;
15633;SDS011;14654;48.898;8.308;2023-03-01T06:49:03;24.50;;;20.43;;
15633;SDS011;14654;48.898;8.308;2023-03-01T06:51:32;23.93;;;20.57;;
15633;SDS011;14654;48.898;8.308;2023-03-01T06:53:58;24.60;;;20.03;;
15633;SDS011;14654;48.898;8.308;2023-03-01T06:56:23;22.80;;;20.40;;
15633;SDS011;14654;48.898;8.308;2023-03-01T06:58:48;26.10;;;20.63;;
15633;SDS011;14654;48.898;8.308;2023-03-01T07:01:14;23.93;;;20.63;;
15633;SDS011;14654;48.898;8.308;2023-03-01T07:03:39;29.97;;;20.77;;
15633;SDS011;14654;48.898;8.308;2023-03-01T07:06:04;25.23;;;20.93;;
15633;SDS011;14654;48.898;8.308;2023-03-01T07:08:30;25.10;;;20.60;;
15633;SDS011;14654;48.898;8.308;2023-03-01T07:10:55;21.83;;;19.23;;
15633;SDS011;14654;48.898;8.308;2023-03-01T07:13:22;24.90;;;19.67;;
15633;SDS011;14654;48.898;8.308;2023-03-01T07:15:47;23.73;;;19.77;;
15633;SDS011;14654;48.898;8.308;2023-03-01T07:18:12;22.77;;;20.30;;
15633;SDS011;14654;48.898;8.308;2023-03-01T07:20:38;25.63;;;20.30;;
15633;SDS011;14654;48.898;8.308;2023-03-01T07:23:03;25.23;;;20.33;;
15633;SDS011;14654;48.898;8.308;2023-03-01T07:25:30;26.53;;;21.27;;
15633;SDS011;14654;48.898;8.308;2023-03-01T07:27:55;27.00;;;20.97;;
15633;SDS011;14654;48.898;8.308;2023-03-01T07:30:21;23.93;;;21.10;;
15633;SDS011;14654;48.898;8.308;2023-03-01T07:32:47;23.83;;;20.70;;
15633;SDS011;14654;48.898;8.308;2023-03-01T07:35:13;25.93;;;20.53;;
15633;SDS011;14654;48.898;8.308;2023-03-01T07:37:39;23.23;;;20.73;;
15633;SDS011;14654;48.898;8.308;2023-03-01T07:40:05;22.73;;;20.30;;
15633;SDS011;14654;48.898;8.308;2023-03-01T07:42:31;22.93;;;20.07;;
15633;SDS011;14654;48.898;8.308;2023-03-01T07:44:56;22.40;;;19.97;;
15633;SDS011;14654;48.898;8.308;2023-03-01T07:47:21;23.03;;;20.53;;
15633;SDS011;14654;48.898;8.308;2023-03-01T07:49:47;22.73;;;20.10;;
15633;SDS011;14654;48.898;8.308;2023-03-01T07:52:12;23.07;;;20.57;;
15633;SDS011;14654;48.898;8.308;2023-03-01T07:54:38;25.33;;;20.87;;
15633;SDS011;14654;48.898;8.308;2023-03-01T07:57:04;24.37;;;21.10;;
15633;SDS011;14654;48.898;8.308;2023-03-01T07:59:29;23.37;;;20.07;;
15633;SDS011;14654;48.898;8.308;2023-03-01T08:01:57;24.13;;;20.80;;
15633;SDS011;14654;48.898;8.308;2023-03-01T08:04:23;25.10;;;21.70;;
15633;SDS011;14654;48.898;8.308;2023-03-01T08:06:50;24.37;;;19.87;;
15633;SDS011;14654;48.898;8.308;2023-03-01T08:09:15;26.73;;;19.70;;
15633;SDS011;14654;48.898;8.308;2023-03-01T08:11:41;24.57;;;20.30;;
15633;SDS011;14654;48.898;8.308;2023-03-01T08:14:07;33.57;;;21.20;;
15633;SDS011;14654;48.898;8.308;2023-03-01T08:16:32;25.17;;;20.27;;
15633;SDS011;14654;48.898;8.308;2023-03-01T08:19:03;140.80;;;36.33;;
15633;SDS011;14654;48.898;8.308;2023-03-01T08:21:32;28.03;;;22.03;;
15633;SDS011;14654;48.898;8.308;2023-03-01T08:23:59;55.60;;;25.57;;
15633;SDS011;14654;48.898;8.308;2023-03-01T08:26:25;43.43;;;23.40;;
15633;SDS011;14654;48.898;8.308;2023-03-01T08:28:50;41.27;;;22.40;;
15633;SDS011;14654;48.898;8.308;2023-03-01T08:31:24;35.50;;;22.87;;
15633;SDS011;14654;48.898;8.308;2023-03-01T08:33:55;43.63;;;24.03;;
15633;SDS011;14654;48.898;8.308;2023-03-01T08:36:26;30.73;;;21.77;;
15633;SDS011;14654;48.898;8.308;2023-03-01T08:38:53;23.97;;;20.67;;
15633;SDS011;14654;48.898;8.308;2023-03-01T08:41:19;23.17;;;20.40;;
15633;SDS011;14654;48.898;8.308;2023-03-01T08:43:45;29.63;;;21.33;;
15633;SDS011;14654;48.898;8.308;2023-03-01T08:46:11;25.73;;;20.97;;
15633;SDS011;14654;48.898;8.308;2023-03-01T08:48:37;28.40;;;22.17;;
15633;SDS011;14654;48.898;8.308;2023-03-01T08:51:09;33.60;;;22.67;;
15633;SDS011;14654;48.898;8.308;2023-03-01T08:53:36;46.33;;;24.60;;
15633;SDS011;14654;48.898;8.308;2023-03-01T08:56:01;23.27;;;20.17;;
15633;SDS011;14654;48.898;8.308;2023-03-01T08:58:28;25.00;;;21.10;;
15633;SDS011;14654;48.898;8.308;2023-03-01T09:00:53;22.67;;;20.27;;
15633;SDS011;14654;48.898;8.308;2023-03-01T09:03:19;23.53;;;20.83;;
15633;SDS011;14654;48.898;8.308;2023-03-01T09:05:44;24.27;;;20.97;;
15633;SDS011;14654;48.898;8.308;2023-03-01T09:08:10;25.50;;;20.83;;
15633;SDS011;14654;48.898;8.308;2023-03-01T09:10:37;22.80;;;20.30;;
15633;SDS011;14654;48.898;8.308;2023-03-01T09:13:03;23.80;;;20.67;;
15633;SDS011;14654;48.898;8.308;2023-03-01T09:15:28;35.60;;;22.53;;
15633;SDS011;14654;48.898;8.308;2023-03-01T09:17:53;30.97;;;22.17;;
15633;SDS011;14654;48.898;8.308;2023-03-01T09:20:19;26.80;;;21.60;;
15633;SDS011;14654;48.898;8.308;2023-03-01T09:22:44;29.20;;;21.83;;
15633;SDS011;14654;48.898;8.308;2023-03-01T09:25:10;23.57;;;20.63;;
15633;SDS011;14654;48.898;8.308;2023-03-01T09:27:35;23.57;;;21.17;;
15633;SDS011;14654;48.898;8.308;2023-03-01T09:30:00;34.47;;;22.73;;
15633;SDS011;14654;48.898;8.308;2023-03-01T09:32:26;33.93;;;22.37;;
15633;SDS011;14654;48.898;8.308;2023-03-01T09:34:51;24.60;;;22.07;;
15633;SDS011;14654;48.898;8.308;2023-03-01T09:37:30;31.40;;;21.83;;
15633;SDS011;14654;48.898;8.308;2023-03-01T09:39:57;62.80;;;26.10;;
15633;SDS011;14654;48.898;8.308;2023-03-01T09:42:22;22.83;;;20.53;;
15633;SDS011;14654;48.898;8.308;2023-03-01T09:44:49;22.90;;;20.50;;
15633;SDS011;14654;48.898;8.308;2023-03-01T09:47:21;27.90;;;22.13;;
15633;SDS011;14654;48.898;8.308;2023-03-01T09:50:11;25.30;;;20.93;;
15633;SDS011;14654;48.898;8.308;2023-03-01T09:52:42;32.20;;;22.27;;
15633;SDS011;14654;48.898;8.308;2023-03-01T09:55:14;30.17;;;22.57;;
15633;SDS011;14654;48.898;8.308;2023-03-01T10:02:49;23.53;;;21.13;;
15633;SDS011;14654;48.898;8.308;2023-03-01T10:05:40;22.77;;;20.47;;
15633;SDS011;14654;48.898;8.308;2023-03-01T10:10:58;28.13;;;22.53;;
15633;SDS011;14654;48.898;8.308;2023-03-01T10:15:55;23.23;;;20.47;;
15633;SDS011;14654;48.898;8.308;2023-03-01T10:18:27;24.60;;;22.07;;
15633;SDS011;14654;48.898;8.308;2023-03-01T10:20:59;23.00;;;20.57;;
15633;SDS011;14654;48.898;8.308;2023-03-01T10:23:27;24.57;;;21.53;;
15633;SDS011;14654;48.898;8.308;2023-03-01T10:31:36;47.43;;;25.90;;
15633;SDS011;14654;48.898;8.308;2023-03-01T10:34:38;24.27;;;21.67;;
15633;SDS011;14654;48.898;8.308;2023-03-01T10:42:34;23.03;;;20.60;;
15633;SDS011;14654;48.898;8.308;2023-03-01T10:48:05;22.83;;;20.33;;
15633;SDS011;14654;48.898;8.308;2023-03-01T10:50:37;22.00;;;19.80;;
15633;SDS011;14654;48.898;8.308;2023-03-01T10:53:04;35.07;;;23.60;;
15633;SDS011;14654;48.898;8.308;2023-03-01T10:55:38;24.47;;;21.87;;
15633;SDS011;14654;48.898;8.308;2023-03-01T11:03:19;23.77;;;21.23;;
15633;SDS011;14654;48.898;8.308;2023-03-01T11:08:29;23.33;;;20.93;;
15633;SDS011;14654;48.898;8.308;2023-03-01T11:11:40;23.90;;;21.60;;
15633;SDS011;14654;48.898;8.308;2023-03-01T11:14:14;25.20;;;22.47;;
15633;SDS011;14654;48.898;8.308;2023-03-01T11:16:47;24.10;;;21.73;;
15633;SDS011;14654;48.898;8.308;2023-03-01T11:19:20;23.27;;;20.87;;
15633;SDS011;14654;48.898;8.308;2023-03-01T11:24:26;23.47;;;20.97;;
15633;SDS011;14654;48.898;8.308;2023-03-01T11:27:04;25.40;;;21.00;;
15633;SDS011;14654;48.898;8.308;2023-03-01T11:29:40;24.13;;;21.63;;
15633;SDS011;14654;48.898;8.308;2023-03-01T11:32:09;22.87;;;20.67;;
15633;SDS011;14654;48.898;8.308;2023-03-01T11:34:40;24.07;;;21.77;;
15633;SDS011;14654;48.898;8.308;2023-03-01T11:37:15;23.40;;;21.10;;
15633;SDS011;14654;48.898;8.308;2023-03-01T11:39:54;24.23;;;21.53;;
15633;SDS011;14654;48.898;8.308;2023-03-01T11:44:59;23.03;;;20.73;;
15633;SDS011;14654;48.898;8.308;2023-03-01T11:47:32;23.93;;;21.43;;
15633;SDS011;14654;48.898;8.308;2023-03-01T11:50:23;226.80;;;53.20;;
15633;SDS011;14654;48.898;8.308;2023-03-01T12:09:34;30.60;;;21.93;;
15633;SDS011;14654;48.898;8.308;2023-03-01T12:22:41;23.03;;;20.60;;
15633;SDS011;14654;48.898;8.308;2023-03-01T12:36:31;28.83;;;22.83;;
15633;SDS011;14654;48.898;8.308;2023-03-01T12:42:01;25.40;;;22.17;;
15633;SDS011;14654;48.898;8.308;2023-03-01T12:50:01;32.57;;;23.00;;
15633;SDS011;14654;48.898;8.308;2023-03-01T12:52:36;27.50;;;22.37;;
15633;SDS011;14654;48.898;8.308;2023-03-01T12:55:09;63.70;;;27.07;;
15633;SDS011;14654;48.898;8.308;2023-03-01T12:57:53;32.53;;;22.67;;
15633;SDS011;14654;48.898;8.308;2023-03-01T13:00:31;24.70;;;22.13;;
15633;SDS011;14654;48.898;8.308;2023-03-01T13:12:02;36.80;;;25.03;;
15633;SDS011;14654;48.898;8.308;2023-03-01T13:16:56;24.37;;;21.83;;
15633;SDS011;14654;48.898;8.308;2023-03-01T13:19:22;28.90;;;23.03;;
15633;SDS011;14654;48.898;8.308;2023-03-01T13:21:49;40.93;;;24.13;;
15633;SDS011;14654;48.898;8.308;2023-03-01T13:32:18;24.10;;;21.57;;
15633;SDS011;14654;48.898;8.308;2023-03-01T13:34:45;24.20;;;21.80;;
15633;SDS011;14654;48.898;8.308;2023-03-01T13:37:31;24.20;;;21.53;;
15633;SDS011;14654;48.898;8.308;2023-03-01T13:40:03;24.87;;;21.87;;
15633;SDS011;14654;48.898;8.308;2023-03-01T13:42:53;23.07;;;20.87;;
15633;SDS011;14654;48.898;8.308;2023-03-01T13:45:32;56.30;;;26.37;;
15633;SDS011;14654;48.898;8.308;2023-03-01T13:47:59;27.50;;;21.77;;
15633;SDS011;14654;48.898;8.308;2023-03-01T13:50:33;36.07;;;23.67;;
15633;SDS011;14654;48.898;8.308;2023-03-01T13:53:10;24.70;;;22.13;;
15633;SDS011;14654;48.898;8.308;2023-03-01T13:55:42;37.23;;;23.23;;
15633;SDS011;14654;48.898;8.308;2023-03-01T13:58:53;110.40;;;34.97;;
15633;SDS011;14654;48.898;8.308;2023-03-01T14:01:22;26.03;;;22.23;;
15633;SDS011;14654;48.898;8.308;2023-03-01T14:03:53;22.93;;;20.67;;
15633;SDS011;14654;48.898;8.308;2023-03-01T14:06:24;23.87;;;21.47;;
15633;SDS011;14654;48.898;8.308;2023-03-01T14:08:52;26.47;;;20.60;;
15633;SDS011;14654;48.898;8.308;2023-03-01T14:11:34;23.30;;;20.83;;
15633;SDS011;14654;48.898;8.308;2023-03-01T14:19:34;23.93;;;20.73;;
15633;SDS011;14654;48.898;8.308;2023-03-01T14:24:42;24.13;;;21.73;;
15633;SDS011;14654;48.898;8.308;2023-03-01T14:27:14;21.60;;;19.50;;
15633;SDS011;14654;48.898;8.308;2023-03-01T14:29:40;22.40;;;20.10;;
15633;SDS011;14654;48.898;8.308;2023-03-01T14:32:17;22.87;;;20.67;;
15633;SDS011;14654;48.898;8.308;2023-03-01T14:34:46;22.53;;;20.23;;
15633;SDS011;14654;48.898;8.308;2023-03-01T14:40:05;24.23;;;21.03;;
15633;SDS011;14654;48.898;8.308;2023-03-01T14:42:50;23.77;;;20.33;;
15633;SDS011;14654;48.898;8.308;2023-03-01T14:45:16;21.97;;;19.93;;
15633;SDS011;14654;48.898;8.308;2023-03-01T14:47:43;21.90;;;19.60;;
15633;SDS011;14654;48.898;8.308;2023-03-01T14:50:28;22.60;;;20.10;;
15633;SDS011;14654;48.898;8.308;2023-03-01T14:53:00;21.53;;;19.37;;
15633;SDS011;14654;48.898;8.308;2023-03-01T14:55:29;21.30;;;19.20;;
15633;SDS011;14654;48.898;8.308;2023-03-01T14:57:57;22.60;;;20.20;;
15633;SDS011;14654;48.898;8.308;2023-03-01T15:00:27;25.60;;;21.33;;
15633;SDS011;14654;48.898;8.308;2023-03-01T15:02:55;24.93;;;20.67;;
15633;SDS011;14654;48.898;8.308;2023-03-01T15:05:30;32.00;;;22.60;;
15633;SDS011;14654;48.898;8.308;2023-03-01T15:07:59;23.20;;;19.83;;
15633;SDS011;14654;48.898;8.308;2023-03-01T15:10:28;22.33;;;20.33;;
15633;SDS011;14654;48.898;8.308;2023-03-01T15:12:56;22.50;;;20.40;;
15633;SDS011;14654;48.898;8.308;2023-03-01T15:15:35;54.93;;;26.40;;
15633;SDS011;14654;48.898;8.308;2023-03-01T15:18:27;24.60;;;20.40;;
15633;SDS011;14654;48.898;8.308;2023-03-01T15:20:53;23.70;;;20.77;;
15633;SDS011;14654;48.898;8.308;2023-03-01T15:25:49;23.30;;;20.60;;
15633;SDS011;14654;48.898;8.308;2023-03-01T15:28:21;21.87;;;19.50;;
15633;SDS011;14654;48.898;8.308;2023-03-01T15:31:00;24.97;;;18.63;;
15633;SDS011;14654;48.898;8.308;2023-03-01T15:33:29;21.67;;;19.40;;
15633;SDS011;14654;48.898;8.308;2023-03-01T15:35:57;21.23;;;19.03;;
15633;SDS011;14654;48.898;8.308;2023-03-01T15:38:31;29.53;;;19.90;;
15633;SDS011;14654;48.898;8.308;2023-03-01T15:41:03;21.83;;;19.43;;
15633;SDS011;14654;48.898;8.308;2023-03-01T15:43:41;20.03;;;18.00;;
15633;SDS011;14654;48.898;8.308;2023-03-01T15:46:16;20.50;;;18.57;;
15633;SDS011;14654;48.898;8.308;2023-03-01T15:48:44;22.67;;;19.47;;
15633;SDS011;14654;48.898;8.308;2023-03-01T15:51:11;31.13;;;19.90;;
15633;SDS011;14654;48.898;8.308;2023-03-01T15:53:39;20.67;;;18.60;;
15633;SDS011;14654;48.898;8.308;2023-03-01T15:56:04;19.93;;;18.03;;
15633;SDS011;14654;48.898;8.308;2023-03-01T15:58:32;19.93;;;17.93;;
15633;SDS011;14654;48.898;8.308;2023-03-01T16:00:57;20.93;;;18.77;;
15633;SDS011;14654;48.898;8.308;2023-03-01T16:03:24;21.43;;;19.17;;
15633;SDS011;14654;48.898;8.308;2023-03-01T16:05:49;20.97;;;18.60;;
15633;SDS011;14654;48.898;8.308;2023-03-01T16:08:15;19.83;;;17.93;;
15633;SDS011;14654;48.898;8.308;2023-03-01T16:10:42;21.83;;;19.50;;
15633;SDS011;14654;48.898;8.308;2023-03-01T16:13:11;20.53;;;18.43;;
15633;SDS011;14654;48.898;8.308;2023-03-01T16:15:36;19.03;;;17.20;;
15633;SDS011;14654;48.898;8.308;2023-03-01T16:18:03;21.80;;;18.30;;
15633;SDS011;14654;48.898;8.308;2023-03-01T16:20:35;29.27;;;18.67;;
15633;SDS011;14654;48.898;8.308;2023-03-01T16:23:01;21.00;;;18.90;;
15633;SDS011;14654;48.898;8.308;2023-03-01T16:25:28;20.87;;;18.33;;
15633;SDS011;14654;48.898;8.308;2023-03-01T16:27:54;19.60;;;17.53;;
15633;SDS011;14654;48.898;8.308;2023-03-01T16:30:21;22.23;;;18.57;;
15633;SDS011;14654;48.898;8.308;2023-03-01T16:32:48;20.73;;;18.70;;
15633;SDS011;14654;48.898;8.308;2023-03-01T16:35:15;19.80;;;17.80;;
15633;SDS011;14654;48.898;8.308;2023-03-01T16:37:43;20.33;;;18.27;;
15633;SDS011;14654;48.898;8.308;2023-03-01T16:40:25;19.80;;;17.87;;
15633;SDS011;14654;48.898;8.308;2023-03-01T16:42:52;20.53;;;18.43;;